Terminal Aerodrome Forecast
Issued by NWS Wilmington, NC

Current Version | Previous Version | Graphics & Text | Print | Product List | Glossary Off
Versions: 1 2 3 4 5 6 7 8 9 10 11 12 13 14 15 16 17 18 19 20 21 22 23

000
FTUS42 KILM 261700
TAFFLO
TAF
KFLO 261722Z 2618/2718 23007KT P6SM SCT030
     FM270000 22003KT P6SM FEW050 SCT250
      TEMPO 2708/2711 4SM BR SCT005
     FM271500 23010KT P6SM SCT030 SCT090 BKN250=

USA.gov is the U.S. government's official web portal to all federal, state and local government web resources and services.